sensor_id;sensor_type;location;lat;lon;timestamp;P1;durP1;ratioP1;P2;durP2;ratioP2
44328;SDS011;30039;51.462;6.892;2022-09-24T00:00:47;15.07;;;8.52;;
44328;SDS011;30039;51.462;6.892;2022-09-24T00:03:38;13.77;;;8.60;;
44328;SDS011;30039;51.462;6.892;2022-09-24T00:06:24;16.60;;;8.13;;
44328;SDS011;30039;51.462;6.892;2022-09-24T00:09:11;14.82;;;8.27;;
44328;SDS011;30039;51.462;6.892;2022-09-24T00:11:56;14.77;;;8.93;;
44328;SDS011;30039;51.462;6.892;2022-09-24T00:14:42;15.15;;;8.38;;
44328;SDS011;30039;51.462;6.892;2022-09-24T00:17:28;13.38;;;8.77;;
44328;SDS011;30039;51.462;6.892;2022-09-24T00:20:15;13.85;;;7.70;;
44328;SDS011;30039;51.462;6.892;2022-09-24T00:23:01;11.52;;;8.15;;
44328;SDS011;30039;51.462;6.892;2022-09-24T00:25:46;14.82;;;8.57;;
44328;SDS011;30039;51.462;6.892;2022-09-24T00:28:51;16.02;;;8.60;;
44328;SDS011;30039;51.462;6.892;2022-09-24T00:31:37;14.82;;;8.82;;
44328;SDS011;30039;51.462;6.892;2022-09-24T00:34:22;17.73;;;9.85;;
44328;SDS011;30039;51.462;6.892;2022-09-24T00:37:08;13.20;;;8.35;;
44328;SDS011;30039;51.462;6.892;2022-09-24T00:39:55;14.25;;;8.35;;
44328;SDS011;30039;51.462;6.892;2022-09-24T00:42:41;16.42;;;9.32;;
44328;SDS011;30039;51.462;6.892;2022-09-24T00:45:27;13.77;;;8.85;;
44328;SDS011;30039;51.462;6.892;2022-09-24T00:48:13;16.05;;;9.48;;
44328;SDS011;30039;51.462;6.892;2022-09-24T00:51:02;17.67;;;9.68;;
44328;SDS011;30039;51.462;6.892;2022-09-24T00:53:49;15.30;;;8.95;;
44328;SDS011;30039;51.462;6.892;2022-09-24T00:56:36;16.88;;;9.45;;
44328;SDS011;30039;51.462;6.892;2022-09-24T00:59:24;15.75;;;10.20;;
44328;SDS011;30039;51.462;6.892;2022-09-24T01:02:09;17.05;;;9.77;;
44328;SDS011;30039;51.462;6.892;2022-09-24T01:04:55;14.88;;;9.73;;
44328;SDS011;30039;51.462;6.892;2022-09-24T01:07:41;18.40;;;10.13;;
44328;SDS011;30039;51.462;6.892;2022-09-24T01:10:39;16.08;;;10.30;;
44328;SDS011;30039;51.462;6.892;2022-09-24T01:14:17;15.80;;;10.25;;
44328;SDS011;30039;51.462;6.892;2022-09-24T01:31:31;19.02;;;10.65;;
44328;SDS011;30039;51.462;6.892;2022-09-24T01:34:16;19.58;;;10.73;;
44328;SDS011;30039;51.462;6.892;2022-09-24T01:37:04;17.80;;;10.18;;
44328;SDS011;30039;51.462;6.892;2022-09-24T01:39:51;15.07;;;10.30;;
44328;SDS011;30039;51.462;6.892;2022-09-24T01:42:38;15.70;;;9.95;;
44328;SDS011;30039;51.462;6.892;2022-09-24T01:45:26;17.58;;;10.77;;
44328;SDS011;30039;51.462;6.892;2022-09-24T01:48:17;19.25;;;10.45;;
44328;SDS011;30039;51.462;6.892;2022-09-24T01:51:11;15.38;;;9.30;;
44328;SDS011;30039;51.462;6.892;2022-09-24T01:54:06;14.63;;;8.70;;
44328;SDS011;30039;51.462;6.892;2022-09-24T01:56:56;17.48;;;8.82;;
44328;SDS011;30039;51.462;6.892;2022-09-24T01:59:44;15.18;;;9.45;;
44328;SDS011;30039;51.462;6.892;2022-09-24T02:02:35;15.43;;;9.73;;
44328;SDS011;30039;51.462;6.892;2022-09-24T02:05:36;14.75;;;9.27;;
44328;SDS011;30039;51.462;6.892;2022-09-24T02:08:24;16.00;;;9.30;;
44328;SDS011;30039;51.462;6.892;2022-09-24T02:11:11;16.13;;;9.60;;
44328;SDS011;30039;51.462;6.892;2022-09-24T02:14:06;15.05;;;9.65;;
44328;SDS011;30039;51.462;6.892;2022-09-24T02:16:53;20.05;;;9.35;;
44328;SDS011;30039;51.462;6.892;2022-09-24T02:19:39;13.40;;;9.20;;
44328;SDS011;30039;51.462;6.892;2022-09-24T02:22:26;15.07;;;10.07;;
44328;SDS011;30039;51.462;6.892;2022-09-24T02:25:13;15.32;;;9.40;;
44328;SDS011;30039;51.462;6.892;2022-09-24T02:28:00;18.13;;;10.43;;
44328;SDS011;30039;51.462;6.892;2022-09-24T02:30:49;16.30;;;9.95;;
44328;SDS011;30039;51.462;6.892;2022-09-24T02:33:36;16.02;;;9.57;;
44328;SDS011;30039;51.462;6.892;2022-09-24T02:36:42;18.05;;;10.30;;
44328;SDS011;30039;51.462;6.892;2022-09-24T02:39:28;14.93;;;9.25;;
44328;SDS011;30039;51.462;6.892;2022-09-24T02:42:14;16.85;;;10.02;;
44328;SDS011;30039;51.462;6.892;2022-09-24T02:45:00;16.15;;;9.35;;
44328;SDS011;30039;51.462;6.892;2022-09-24T02:47:46;15.52;;;9.20;;
44328;SDS011;30039;51.462;6.892;2022-09-24T02:50:32;14.18;;;9.68;;
44328;SDS011;30039;51.462;6.892;2022-09-24T02:53:18;14.55;;;9.15;;
44328;SDS011;30039;51.462;6.892;2022-09-24T02:56:04;14.55;;;9.18;;
44328;SDS011;30039;51.462;6.892;2022-09-24T02:58:49;15.88;;;9.68;;
44328;SDS011;30039;51.462;6.892;2022-09-24T03:01:35;16.60;;;10.07;;
44328;SDS011;30039;51.462;6.892;2022-09-24T03:04:21;15.68;;;10.27;;
44328;SDS011;30039;51.462;6.892;2022-09-24T03:07:07;17.15;;;10.43;;
44328;SDS011;30039;51.462;6.892;2022-09-24T03:09:53;16.15;;;9.82;;
44328;SDS011;30039;51.462;6.892;2022-09-24T03:12:39;15.93;;;9.65;;
44328;SDS011;30039;51.462;6.892;2022-09-24T03:15:26;16.63;;;9.75;;
44328;SDS011;30039;51.462;6.892;2022-09-24T03:18:12;16.77;;;10.00;;
44328;SDS011;30039;51.462;6.892;2022-09-24T03:20:59;13.40;;;9.38;;
44328;SDS011;30039;51.462;6.892;2022-09-24T03:23:46;15.07;;;9.20;;
44328;SDS011;30039;51.462;6.892;2022-09-24T03:26:32;15.10;;;8.90;;
44328;SDS011;30039;51.462;6.892;2022-09-24T03:29:17;16.45;;;9.60;;
44328;SDS011;30039;51.462;6.892;2022-09-24T03:32:23;14.95;;;9.13;;
44328;SDS011;30039;51.462;6.892;2022-09-24T03:35:08;17.45;;;9.43;;
44328;SDS011;30039;51.462;6.892;2022-09-24T03:37:55;15.05;;;9.30;;
44328;SDS011;30039;51.462;6.892;2022-09-24T03:40:41;17.10;;;8.90;;
44328;SDS011;30039;51.462;6.892;2022-09-24T03:43:27;18.55;;;10.55;;
44328;SDS011;30039;51.462;6.892;2022-09-24T03:46:13;13.70;;;8.88;;
44328;SDS011;30039;51.462;6.892;2022-09-24T03:49:00;15.80;;;8.95;;
44328;SDS011;30039;51.462;6.892;2022-09-24T03:51:45;14.05;;;9.40;;
44328;SDS011;30039;51.462;6.892;2022-09-24T03:54:31;16.85;;;9.07;;
44328;SDS011;30039;51.462;6.892;2022-09-24T03:57:17;15.10;;;9.25;;
44328;SDS011;30039;51.462;6.892;2022-09-24T04:00:03;19.48;;;10.55;;
44328;SDS011;30039;51.462;6.892;2022-09-24T04:02:49;17.02;;;9.95;;
44328;SDS011;30039;51.462;6.892;2022-09-24T04:05:34;15.13;;;9.68;;
44328;SDS011;30039;51.462;6.892;2022-09-24T04:08:20;18.30;;;10.25;;
44328;SDS011;30039;51.462;6.892;2022-09-24T04:11:06;16.48;;;9.88;;
44328;SDS011;30039;51.462;6.892;2022-09-24T04:13:52;18.98;;;9.70;;
44328;SDS011;30039;51.462;6.892;2022-09-24T04:16:38;16.08;;;9.52;;
44328;SDS011;30039;51.462;6.892;2022-09-24T04:19:24;15.20;;;9.38;;
44328;SDS011;30039;51.462;6.892;2022-09-24T04:22:11;16.40;;;9.52;;
44328;SDS011;30039;51.462;6.892;2022-09-24T04:24:57;15.63;;;9.73;;
44328;SDS011;30039;51.462;6.892;2022-09-24T04:27:43;18.65;;;9.98;;
44328;SDS011;30039;51.462;6.892;2022-09-24T04:30:29;15.93;;;9.20;;
44328;SDS011;30039;51.462;6.892;2022-09-24T04:33:15;19.48;;;9.50;;
44328;SDS011;30039;51.462;6.892;2022-09-24T04:36:01;15.50;;;9.25;;
44328;SDS011;30039;51.462;6.892;2022-09-24T04:38:47;16.92;;;9.45;;
44328;SDS011;30039;51.462;6.892;2022-09-24T04:41:32;13.30;;;8.88;;
44328;SDS011;30039;51.462;6.892;2022-09-24T04:44:19;16.50;;;9.43;;
44328;SDS011;30039;51.462;6.892;2022-09-24T04:47:05;16.63;;;9.35;;
44328;SDS011;30039;51.462;6.892;2022-09-24T04:49:53;17.02;;;10.20;;
44328;SDS011;30039;51.462;6.892;2022-09-24T04:52:39;15.77;;;10.13;;
44328;SDS011;30039;51.462;6.892;2022-09-24T04:55:25;15.65;;;8.98;;
44328;SDS011;30039;51.462;6.892;2022-09-24T04:58:12;19.88;;;12.13;;
44328;SDS011;30039;51.462;6.892;2022-09-24T05:01:00;17.48;;;10.32;;
44328;SDS011;30039;51.462;6.892;2022-09-24T05:03:50;16.98;;;10.02;;
44328;SDS011;30039;51.462;6.892;2022-09-24T05:06:36;16.65;;;9.60;;
44328;SDS011;30039;51.462;6.892;2022-09-24T05:09:21;19.77;;;9.88;;
44328;SDS011;30039;51.462;6.892;2022-09-24T05:12:07;17.00;;;9.25;;
44328;SDS011;30039;51.462;6.892;2022-09-24T05:14:53;17.40;;;9.93;;
44328;SDS011;30039;51.462;6.892;2022-09-24T05:17:38;14.95;;;8.82;;
44328;SDS011;30039;51.462;6.892;2022-09-24T05:20:24;16.70;;;10.18;;
44328;SDS011;30039;51.462;6.892;2022-09-24T05:23:10;17.25;;;9.55;;
44328;SDS011;30039;51.462;6.892;2022-09-24T05:25:55;17.85;;;9.88;;
44328;SDS011;30039;51.462;6.892;2022-09-24T05:29:00;20.08;;;10.23;;
44328;SDS011;30039;51.462;6.892;2022-09-24T05:31:46;18.90;;;10.55;;
44328;SDS011;30039;51.462;6.892;2022-09-24T05:34:31;18.83;;;9.98;;
44328;SDS011;30039;51.462;6.892;2022-09-24T05:37:17;16.67;;;10.05;;
44328;SDS011;30039;51.462;6.892;2022-09-24T05:40:04;17.08;;;9.32;;
44328;SDS011;30039;51.462;6.892;2022-09-24T05:43:08;17.92;;;9.60;;
44328;SDS011;30039;51.462;6.892;2022-09-24T05:45:54;15.15;;;9.43;;
44328;SDS011;30039;51.462;6.892;2022-09-24T05:48:42;16.17;;;9.20;;
44328;SDS011;30039;51.462;6.892;2022-09-24T05:51:28;16.50;;;9.27;;
44328;SDS011;30039;51.462;6.892;2022-09-24T05:54:14;14.60;;;9.05;;
44328;SDS011;30039;51.462;6.892;2022-09-24T05:57:00;16.67;;;9.35;;
44328;SDS011;30039;51.462;6.892;2022-09-24T05:59:47;15.88;;;8.50;;
44328;SDS011;30039;51.462;6.892;2022-09-24T06:02:32;15.75;;;8.45;;
44328;SDS011;30039;51.462;6.892;2022-09-24T06:05:18;14.18;;;9.07;;
44328;SDS011;30039;51.462;6.892;2022-09-24T06:08:04;15.77;;;8.10;;
44328;SDS011;30039;51.462;6.892;2022-09-24T06:10:50;15.23;;;7.85;;
44328;SDS011;30039;51.462;6.892;2022-09-24T06:13:36;13.68;;;7.45;;
44328;SDS011;30039;51.462;6.892;2022-09-24T06:16:22;16.77;;;8.98;;
44328;SDS011;30039;51.462;6.892;2022-09-24T06:19:07;15.15;;;8.07;;
44328;SDS011;30039;51.462;6.892;2022-09-24T06:21:54;12.48;;;7.80;;
44328;SDS011;30039;51.462;6.892;2022-09-24T06:24:40;13.60;;;7.75;;
44328;SDS011;30039;51.462;6.892;2022-09-24T06:27:26;15.90;;;8.57;;
44328;SDS011;30039;51.462;6.892;2022-09-24T06:30:11;15.70;;;8.35;;
44328;SDS011;30039;51.462;6.892;2022-09-24T06:33:01;14.25;;;7.90;;
44328;SDS011;30039;51.462;6.892;2022-09-24T06:35:49;15.00;;;8.18;;
44328;SDS011;30039;51.462;6.892;2022-09-24T06:38:35;14.15;;;7.95;;
44328;SDS011;30039;51.462;6.892;2022-09-24T06:41:21;14.02;;;7.90;;
44328;SDS011;30039;51.462;6.892;2022-09-24T06:44:06;13.05;;;7.93;;
44328;SDS011;30039;51.462;6.892;2022-09-24T06:46:52;14.77;;;8.73;;
44328;SDS011;30039;51.462;6.892;2022-09-24T06:49:38;16.10;;;8.13;;
44328;SDS011;30039;51.462;6.892;2022-09-24T06:52:23;17.60;;;9.05;;
44328;SDS011;30039;51.462;6.892;2022-09-24T06:55:10;12.20;;;8.27;;
44328;SDS011;30039;51.462;6.892;2022-09-24T06:58:03;13.15;;;7.70;;
44328;SDS011;30039;51.462;6.892;2022-09-24T07:00:50;18.80;;;8.73;;
44328;SDS011;30039;51.462;6.892;2022-09-24T07:03:36;14.65;;;8.18;;
44328;SDS011;30039;51.462;6.892;2022-09-24T07:06:23;20.92;;;8.35;;
44328;SDS011;30039;51.462;6.892;2022-09-24T07:09:09;16.17;;;8.20;;
44328;SDS011;30039;51.462;6.892;2022-09-24T07:11:54;11.10;;;7.28;;
44328;SDS011;30039;51.462;6.892;2022-09-24T07:14:44;13.13;;;7.63;;
44328;SDS011;30039;51.462;6.892;2022-09-24T07:17:30;11.80;;;7.53;;
44328;SDS011;30039;51.462;6.892;2022-09-24T07:20:15;13.75;;;7.30;;
44328;SDS011;30039;51.462;6.892;2022-09-24T07:23:02;13.80;;;7.82;;
44328;SDS011;30039;51.462;6.892;2022-09-24T07:25:48;12.93;;;7.88;;
44328;SDS011;30039;51.462;6.892;2022-09-24T07:28:37;16.10;;;7.90;;
44328;SDS011;30039;51.462;6.892;2022-09-24T07:31:23;13.50;;;7.82;;
44328;SDS011;30039;51.462;6.892;2022-09-24T07:34:09;15.40;;;8.43;;
44328;SDS011;30039;51.462;6.892;2022-09-24T07:36:55;13.27;;;8.20;;
44328;SDS011;30039;51.462;6.892;2022-09-24T07:39:40;13.82;;;7.50;;
44328;SDS011;30039;51.462;6.892;2022-09-24T07:42:26;12.32;;;7.68;;
44328;SDS011;30039;51.462;6.892;2022-09-24T07:51:25;12.20;;;7.97;;
44328;SDS011;30039;51.462;6.892;2022-09-24T07:54:12;11.80;;;7.32;;
44328;SDS011;30039;51.462;6.892;2022-09-24T07:56:57;10.93;;;7.32;;
44328;SDS011;30039;51.462;6.892;2022-09-24T07:59:43;11.85;;;8.27;;
44328;SDS011;30039;51.462;6.892;2022-09-24T08:02:29;13.57;;;7.50;;
44328;SDS011;30039;51.462;6.892;2022-09-24T08:05:15;12.85;;;7.95;;
44328;SDS011;30039;51.462;6.892;2022-09-24T08:08:02;15.07;;;8.65;;
44328;SDS011;30039;51.462;6.892;2022-09-24T08:10:49;12.27;;;8.40;;
44328;SDS011;30039;51.462;6.892;2022-09-24T08:13:35;14.20;;;7.57;;
44328;SDS011;30039;51.462;6.892;2022-09-24T08:16:20;17.77;;;8.73;;
44328;SDS011;30039;51.462;6.892;2022-09-24T08:19:06;14.77;;;9.10;;
44328;SDS011;30039;51.462;6.892;2022-09-24T08:21:58;15.88;;;8.93;;
44328;SDS011;30039;51.462;6.892;2022-09-24T08:24:44;12.32;;;7.88;;
44328;SDS011;30039;51.462;6.892;2022-09-24T08:27:29;13.52;;;7.70;;
44328;SDS011;30039;51.462;6.892;2022-09-24T08:30:17;13.15;;;7.47;;
44328;SDS011;30039;51.462;6.892;2022-09-24T08:33:03;13.85;;;7.80;;
44328;SDS011;30039;51.462;6.892;2022-09-24T08:35:52;14.45;;;8.07;;
44328;SDS011;30039;51.462;6.892;2022-09-24T08:38:38;12.07;;;7.63;;
44328;SDS011;30039;51.462;6.892;2022-09-24T08:44:39;11.38;;;7.75;;
44328;SDS011;30039;51.462;6.892;2022-09-24T08:47:49;11.77;;;7.28;;
44328;SDS011;30039;51.462;6.892;2022-09-24T08:50:40;16.52;;;8.75;;
44328;SDS011;30039;51.462;6.892;2022-09-24T08:56:30;13.52;;;7.55;;
44328;SDS011;30039;51.462;6.892;2022-09-24T09:05:24;15.07;;;7.83;;
44328;SDS011;30039;51.462;6.892;2022-09-24T09:11:10;10.10;;;6.13;;
44328;SDS011;30039;51.462;6.892;2022-09-24T09:13:59;8.68;;;5.35;;
44328;SDS011;30039;51.462;6.892;2022-09-24T09:16:48;6.75;;;4.88;;
44328;SDS011;30039;51.462;6.892;2022-09-24T09:19:34;9.80;;;5.38;;
44328;SDS011;30039;51.462;6.892;2022-09-24T09:22:22;10.77;;;6.68;;
44328;SDS011;30039;51.462;6.892;2022-09-24T09:28:09;10.35;;;6.45;;
44328;SDS011;30039;51.462;6.892;2022-09-24T09:36:49;10.18;;;6.65;;
44328;SDS011;30039;51.462;6.892;2022-09-24T09:42:35;23.08;;;8.48;;
44328;SDS011;30039;51.462;6.892;2022-09-24T09:48:27;11.02;;;6.95;;
44328;SDS011;30039;51.462;6.892;2022-09-24T09:51:35;11.88;;;6.53;;
44328;SDS011;30039;51.462;6.892;2022-09-24T09:54:20;11.95;;;6.40;;
44328;SDS011;30039;51.462;6.892;2022-09-24T09:57:07;10.43;;;6.53;;
44328;SDS011;30039;51.462;6.892;2022-09-24T09:59:56;10.77;;;6.55;;
44328;SDS011;30039;51.462;6.892;2022-09-24T10:02:42;14.25;;;6.88;;
44328;SDS011;30039;51.462;6.892;2022-09-24T10:05:27;9.63;;;6.50;;
44328;SDS011;30039;51.462;6.892;2022-09-24T10:08:23;10.13;;;6.63;;
44328;SDS011;30039;51.462;6.892;2022-09-24T10:11:12;9.05;;;6.63;;
44328;SDS011;30039;51.462;6.892;2022-09-24T10:14:07;11.65;;;7.22;;
44328;SDS011;30039;51.462;6.892;2022-09-24T10:16:54;10.13;;;6.45;;
44328;SDS011;30039;51.462;6.892;2022-09-24T10:19:41;9.05;;;5.93;;
44328;SDS011;30039;51.462;6.892;2022-09-24T10:22:30;11.25;;;6.30;;
44328;SDS011;30039;51.462;6.892;2022-09-24T10:25:17;10.70;;;5.95;;
44328;SDS011;30039;51.462;6.892;2022-09-24T10:28:07;11.60;;;6.60;;
44328;SDS011;30039;51.462;6.892;2022-09-24T10:31:13;9.93;;;6.00;;
44328;SDS011;30039;51.462;6.892;2022-09-24T10:34:00;11.57;;;7.00;;
44328;SDS011;30039;51.462;6.892;2022-09-24T10:36:50;10.45;;;6.60;;
44328;SDS011;30039;51.462;6.892;2022-09-24T10:39:36;10.02;;;6.25;;
44328;SDS011;30039;51.462;6.892;2022-09-24T10:42:23;11.27;;;6.38;;
44328;SDS011;30039;51.462;6.892;2022-09-24T10:45:09;10.90;;;6.20;;
44328;SDS011;30039;51.462;6.892;2022-09-24T10:50:56;9.88;;;6.18;;
44328;SDS011;30039;51.462;6.892;2022-09-24T11:11:46;7.93;;;4.80;;
44328;SDS011;30039;51.462;6.892;2022-09-24T11:17:27;7.68;;;4.70;;
44328;SDS011;30039;51.462;6.892;2022-09-24T11:26:08;9.48;;;4.72;;
44328;SDS011;30039;51.462;6.892;2022-09-24T11:40:41;7.50;;;4.45;;
44328;SDS011;30039;51.462;6.892;2022-09-24T11:43:44;8.57;;;4.38;;
44328;SDS011;30039;51.462;6.892;2022-09-24T11:52:19;6.07;;;4.20;;
44328;SDS011;30039;51.462;6.892;2022-09-24T12:01:21;9.68;;;4.90;;
44328;SDS011;30039;51.462;6.892;2022-09-24T12:04:25;8.18;;;4.40;;
44328;SDS011;30039;51.462;6.892;2022-09-24T12:07:12;7.35;;;4.57;;
44328;SDS011;30039;51.462;6.892;2022-09-24T12:10:02;6.68;;;4.22;;
44328;SDS011;30039;51.462;6.892;2022-09-24T12:12:49;6.30;;;4.15;;
44328;SDS011;30039;51.462;6.892;2022-09-24T12:15:58;7.88;;;4.32;;
44328;SDS011;30039;51.462;6.892;2022-09-24T12:21:41;9.75;;;5.28;;
44328;SDS011;30039;51.462;6.892;2022-09-24T12:24:29;7.05;;;4.78;;
44328;SDS011;30039;51.462;6.892;2022-09-24T12:27:34;8.82;;;5.00;;
44328;SDS011;30039;51.462;6.892;2022-09-24T12:39:13;9.65;;;5.13;;
44328;SDS011;30039;51.462;6.892;2022-09-24T12:42:05;6.22;;;4.50;;
44328;SDS011;30039;51.462;6.892;2022-09-24T12:44:53;8.90;;;4.90;;
44328;SDS011;30039;51.462;6.892;2022-09-24T12:47:56;9.18;;;4.28;;
44328;SDS011;30039;51.462;6.892;2022-09-24T12:53:35;6.82;;;4.70;;
44328;SDS011;30039;51.462;6.892;2022-09-24T12:56:22;7.20;;;4.63;;
44328;SDS011;30039;51.462;6.892;2022-09-24T12:59:22;8.63;;;5.45;;
44328;SDS011;30039;51.462;6.892;2022-09-24T13:02:19;9.85;;;5.20;;
44328;SDS011;30039;51.462;6.892;2022-09-24T13:10:57;9.43;;;5.15;;
44328;SDS011;30039;51.462;6.892;2022-09-24T13:16:54;10.15;;;6.00;;
44328;SDS011;30039;51.462;6.892;2022-09-24T13:19:41;8.10;;;5.28;;
44328;SDS011;30039;51.462;6.892;2022-09-24T13:22:30;9.75;;;5.70;;
44328;SDS011;30039;51.462;6.892;2022-09-24T13:25:18;8.43;;;5.70;;
44328;SDS011;30039;51.462;6.892;2022-09-24T13:28:20;10.32;;;5.57;;
44328;SDS011;30039;51.462;6.892;2022-09-24T13:34:19;9.25;;;6.18;;
44328;SDS011;30039;51.462;6.892;2022-09-24T13:37:22;11.20;;;6.00;;
44328;SDS011;30039;51.462;6.892;2022-09-24T13:40:15;12.55;;;6.47;;
44328;SDS011;30039;51.462;6.892;2022-09-24T13:43:29;9.32;;;5.55;;
44328;SDS011;30039;51.462;6.892;2022-09-24T13:46:11;11.20;;;5.88;;
44328;SDS011;30039;51.462;6.892;2022-09-24T13:49:02;11.75;;;6.63;;
44328;SDS011;30039;51.462;6.892;2022-09-24T13:51:54;11.10;;;6.18;;
44328;SDS011;30039;51.462;6.892;2022-09-24T13:54:49;7.65;;;5.20;;
44328;SDS011;30039;51.462;6.892;2022-09-24T13:57:43;11.60;;;6.63;;
44328;SDS011;30039;51.462;6.892;2022-09-24T14:00:30;11.88;;;6.88;;
44328;SDS011;30039;51.462;6.892;2022-09-24T14:03:21;11.23;;;6.38;;
44328;SDS011;30039;51.462;6.892;2022-09-24T14:06:10;9.52;;;6.50;;
44328;SDS011;30039;51.462;6.892;2022-09-24T14:08:57;9.60;;;6.35;;
44328;SDS011;30039;51.462;6.892;2022-09-24T14:11:49;9.13;;;6.30;;
44328;SDS011;30039;51.462;6.892;2022-09-24T14:14:41;12.63;;;7.45;;
44328;SDS011;30039;51.462;6.892;2022-09-24T14:17:27;10.55;;;6.95;;
44328;SDS011;30039;51.462;6.892;2022-09-24T14:20:13;9.90;;;6.72;;
44328;SDS011;30039;51.462;6.892;2022-09-24T14:23:00;12.43;;;7.00;;
44328;SDS011;30039;51.462;6.892;2022-09-24T14:25:46;11.85;;;6.50;;
44328;SDS011;30039;51.462;6.892;2022-09-24T14:28:32;9.60;;;6.43;;
44328;SDS011;30039;51.462;6.892;2022-09-24T14:31:19;10.43;;;6.80;;
44328;SDS011;30039;51.462;6.892;2022-09-24T14:34:04;11.52;;;7.43;;
44328;SDS011;30039;51.462;6.892;2022-09-24T14:36:50;12.38;;;7.47;;
44328;SDS011;30039;51.462;6.892;2022-09-24T14:39:39;11.82;;;7.18;;
44328;SDS011;30039;51.462;6.892;2022-09-24T14:42:35;10.70;;;6.78;;
44328;SDS011;30039;51.462;6.892;2022-09-24T14:45:26;10.85;;;6.70;;
44328;SDS011;30039;51.462;6.892;2022-09-24T14:48:24;10.60;;;6.25;;
44328;SDS011;30039;51.462;6.892;2022-09-24T14:51:28;10.48;;;6.47;;
44328;SDS011;30039;51.462;6.892;2022-09-24T14:54:47;9.07;;;6.35;;
44328;SDS011;30039;51.462;6.892;2022-09-24T14:57:26;9.73;;;6.85;;
44328;SDS011;30039;51.462;6.892;2022-09-24T15:00:21;10.98;;;6.65;;
44328;SDS011;30039;51.462;6.892;2022-09-24T15:03:12;12.52;;;6.63;;
44328;SDS011;30039;51.462;6.892;2022-09-24T15:06:33;8.95;;;6.18;;
44328;SDS011;30039;51.462;6.892;2022-09-24T15:09:24;11.45;;;6.68;;
44328;SDS011;30039;51.462;6.892;2022-09-24T15:12:18;9.45;;;6.57;;
44328;SDS011;30039;51.462;6.892;2022-09-24T15:18:08;10.20;;;6.78;;
44328;SDS011;30039;51.462;6.892;2022-09-24T15:20:55;10.88;;;6.53;;
44328;SDS011;30039;51.462;6.892;2022-09-24T15:23:42;11.40;;;7.03;;
44328;SDS011;30039;51.462;6.892;2022-09-24T15:26:28;11.07;;;6.40;;
44328;SDS011;30039;51.462;6.892;2022-09-24T15:29:19;10.25;;;7.38;;
44328;SDS011;30039;51.462;6.892;2022-09-24T15:32:11;9.80;;;6.85;;
44328;SDS011;30039;51.462;6.892;2022-09-24T15:34:58;8.82;;;6.25;;
44328;SDS011;30039;51.462;6.892;2022-09-24T15:37:44;8.18;;;6.45;;
44328;SDS011;30039;51.462;6.892;2022-09-24T15:40:30;10.07;;;6.95;;
44328;SDS011;30039;51.462;6.892;2022-09-24T15:43:19;11.88;;;6.90;;
44328;SDS011;30039;51.462;6.892;2022-09-24T15:46:05;8.95;;;6.47;;
44328;SDS011;30039;51.462;6.892;2022-09-24T15:48:52;11.65;;;7.18;;
44328;SDS011;30039;51.462;6.892;2022-09-24T15:51:38;10.50;;;6.68;;
44328;SDS011;30039;51.462;6.892;2022-09-24T15:54:24;12.35;;;7.40;;
44328;SDS011;30039;51.462;6.892;2022-09-24T15:57:11;10.68;;;6.55;;
44328;SDS011;30039;51.462;6.892;2022-09-24T15:59:57;10.85;;;6.30;;
44328;SDS011;30039;51.462;6.892;2022-09-24T16:02:43;12.15;;;6.85;;
44328;SDS011;30039;51.462;6.892;2022-09-24T16:05:30;10.63;;;7.30;;
44328;SDS011;30039;51.462;6.892;2022-09-24T16:08:16;8.23;;;6.20;;
44328;SDS011;30039;51.462;6.892;2022-09-24T16:11:04;9.32;;;6.07;;
44328;SDS011;30039;51.462;6.892;2022-09-24T16:13:50;11.25;;;6.63;;
44328;SDS011;30039;51.462;6.892;2022-09-24T16:16:39;10.23;;;6.53;;
44328;SDS011;30039;51.462;6.892;2022-09-24T16:19:24;10.25;;;6.50;;
44328;SDS011;30039;51.462;6.892;2022-09-24T16:22:10;11.88;;;6.25;;
44328;SDS011;30039;51.462;6.892;2022-09-24T16:24:56;9.52;;;6.47;;
44328;SDS011;30039;51.462;6.892;2022-09-24T16:27:41;12.90;;;6.30;;
44328;SDS011;30039;51.462;6.892;2022-09-24T16:30:28;11.15;;;6.78;;
44328;SDS011;30039;51.462;6.892;2022-09-24T16:33:13;9.98;;;6.43;;
44328;SDS011;30039;51.462;6.892;2022-09-24T16:36:05;8.73;;;5.90;;
44328;SDS011;30039;51.462;6.892;2022-09-24T16:38:51;10.70;;;6.43;;
44328;SDS011;30039;51.462;6.892;2022-09-24T16:41:37;10.98;;;6.40;;
44328;SDS011;30039;51.462;6.892;2022-09-24T16:44:22;10.05;;;6.30;;
44328;SDS011;30039;51.462;6.892;2022-09-24T16:47:08;12.15;;;7.70;;
44328;SDS011;30039;51.462;6.892;2022-09-24T16:50:06;11.15;;;6.80;;
44328;SDS011;30039;51.462;6.892;2022-09-24T16:52:53;10.10;;;6.95;;
44328;SDS011;30039;51.462;6.892;2022-09-24T16:55:39;10.65;;;7.35;;
44328;SDS011;30039;51.462;6.892;2022-09-24T16:58:25;9.88;;;6.35;;
44328;SDS011;30039;51.462;6.892;2022-09-24T17:01:12;12.05;;;7.40;;
44328;SDS011;30039;51.462;6.892;2022-09-24T17:03:59;11.40;;;7.13;;
44328;SDS011;30039;51.462;6.892;2022-09-24T17:06:45;11.07;;;7.35;;
44328;SDS011;30039;51.462;6.892;2022-09-24T17:09:31;11.93;;;7.40;;
44328;SDS011;30039;51.462;6.892;2022-09-24T17:12:35;10.45;;;6.95;;
44328;SDS011;30039;51.462;6.892;2022-09-24T17:15:21;13.13;;;7.28;;
44328;SDS011;30039;51.462;6.892;2022-09-24T17:18:07;10.70;;;7.00;;
44328;SDS011;30039;51.462;6.892;2022-09-24T17:21:04;11.55;;;6.80;;
44328;SDS011;30039;51.462;6.892;2022-09-24T17:23:50;10.80;;;7.10;;
44328;SDS011;30039;51.462;6.892;2022-09-24T17:26:36;11.52;;;7.55;;
44328;SDS011;30039;51.462;6.892;2022-09-24T17:29:22;9.43;;;6.65;;
44328;SDS011;30039;51.462;6.892;2022-09-24T17:32:10;10.52;;;7.30;;
44328;SDS011;30039;51.462;6.892;2022-09-24T17:34:56;10.73;;;6.90;;
44328;SDS011;30039;51.462;6.892;2022-09-24T17:37:42;10.95;;;7.25;;
44328;SDS011;30039;51.462;6.892;2022-09-24T17:40:29;9.75;;;6.97;;
44328;SDS011;30039;51.462;6.892;2022-09-24T17:43:15;10.82;;;6.80;;
44328;SDS011;30039;51.462;6.892;2022-09-24T17:46:01;10.98;;;7.13;;
44328;SDS011;30039;51.462;6.892;2022-09-24T17:48:51;10.27;;;6.43;;
44328;SDS011;30039;51.462;6.892;2022-09-24T17:51:37;12.73;;;7.03;;
44328;SDS011;30039;51.462;6.892;2022-09-24T17:54:23;10.13;;;6.95;;
44328;SDS011;30039;51.462;6.892;2022-09-24T17:57:11;11.27;;;7.50;;
44328;SDS011;30039;51.462;6.892;2022-09-24T17:59:57;12.63;;;7.72;;
44328;SDS011;30039;51.462;6.892;2022-09-24T18:02:42;11.45;;;7.35;;
44328;SDS011;30039;51.462;6.892;2022-09-24T18:05:28;12.25;;;7.53;;
44328;SDS011;30039;51.462;6.892;2022-09-24T18:08:14;10.75;;;7.43;;
44328;SDS011;30039;51.462;6.892;2022-09-24T18:11:00;12.27;;;7.63;;
44328;SDS011;30039;51.462;6.892;2022-09-24T18:13:51;12.20;;;7.47;;
44328;SDS011;30039;51.462;6.892;2022-09-24T18:16:38;13.85;;;7.90;;
44328;SDS011;30039;51.462;6.892;2022-09-24T18:19:23;11.30;;;7.03;;
44328;SDS011;30039;51.462;6.892;2022-09-24T18:22:09;13.82;;;8.40;;
44328;SDS011;30039;51.462;6.892;2022-09-24T18:24:55;12.73;;;7.85;;
44328;SDS011;30039;51.462;6.892;2022-09-24T18:27:46;14.77;;;8.20;;
44328;SDS011;30039;51.462;6.892;2022-09-24T18:30:31;11.32;;;7.82;;
44328;SDS011;30039;51.462;6.892;2022-09-24T18:33:17;13.05;;;7.70;;
44328;SDS011;30039;51.462;6.892;2022-09-24T18:36:04;17.33;;;9.30;;
44328;SDS011;30039;51.462;6.892;2022-09-24T18:38:50;11.98;;;7.90;;
44328;SDS011;30039;51.462;6.892;2022-09-24T18:41:35;13.35;;;7.95;;
44328;SDS011;30039;51.462;6.892;2022-09-24T18:44:22;13.30;;;8.50;;
44328;SDS011;30039;51.462;6.892;2022-09-24T18:47:08;12.77;;;8.35;;
44328;SDS011;30039;51.462;6.892;2022-09-24T18:49:58;15.20;;;9.20;;
44328;SDS011;30039;51.462;6.892;2022-09-24T18:52:44;13.32;;;8.30;;
44328;SDS011;30039;51.462;6.892;2022-09-24T18:55:30;13.35;;;8.52;;